Time,TemperatureF,DewpointF,PressureIn,WindDirection,WindDirectionDegrees,WindSpeedMPH,WindSpeedGustMPH,Humidity,HourlyPrecipIn,Conditions,Clouds,dailyrainin,SoftwareType,DateUTC
2014-11-28 00:00:00,52.0,-99.9,29.94,SSW,202,2.0,-999.0,-999,-99.99,,,-99.99,,2014-11-28 08:00:00,
2014-11-28 00:22:00,52.0,-99.9,29.94,SSW,202,2.0,-999.0,-999,-99.99,,,-99.99,,2014-11-28 08:22:00,
2014-11-28 00:32:00,52.0,-99.9,29.94,SSW,202,2.0,-999.0,-999,-99.99,,,-99.99,,2014-11-28 08:32:00,
2014-11-28 00:42:00,52.0,-99.9,29.94,SSW,202,2.0,-999.0,-999,-99.99,,,-99.99,,2014-11-28 08:42:00,
2014-11-28 00:52:00,52.0,-99.9,29.94,SSW,202,2.0,-999.0,-999,-99.99,,,-99.99,,2014-11-28 08:52:00,
2014-11-28 01:00:00,58.0,-99.9,29.91,South,180,6.0,-999.0,-999,-99.99,,,-99.99,,2014-11-28 09:00:00,
2014-11-28 01:22:00,58.0,-99.9,29.91,South,180,6.0,-999.0,-999,-99.99,,,-99.99,,2014-11-28 09:22:00,
2014-11-28 01:33:00,58.0,-99.9,29.91,South,180,6.0,-999.0,-999,-99.99,,,-99.99,,2014-11-28 09:33:00,
2014-11-28 01:43:00,58.0,-99.9,29.91,South,180,6.0,-999.0,-999,-99.99,,,-99.99,,2014-11-28 09:43:00,
2014-11-28 01:54:00,58.0,-99.9,29.91,South,180,6.0,-999.0,-999,-99.99,,,-99.99,,2014-11-28 09:54:00,
2014-11-28 02:00:00,58.0,-99.9,29.91,SW,225,6.0,-999.0,-999,-99.99,,,-99.99,,2014-11-28 10:00:00,
2014-11-28 02:23:00,58.0,-99.9,29.91,SW,225,6.0,-999.0,-999,-99.99,,,-99.99,,2014-11-28 10:23:00,
2014-11-28 02:33:00,58.0,-99.9,29.91,SW,225,6.0,-999.0,-999,-99.99,,,-99.99,,2014-11-28 10:33:00,
2014-11-28 02:43:00,58.0,-99.9,29.91,SW,225,6.0,-999.0,-999,-99.99,,,-99.99,,2014-11-28 10:43:00,
2014-11-28 02:53:00,58.0,-99.9,29.91,SW,225,6.0,-999.0,-999,-99.99,,,-99.99,,2014-11-28 10:53:00,
2014-11-28 03:00:00,58.0,-99.9,29.90,South,180,9.0,-999.0,-999,-99.99,,,-99.99,,2014-11-28 11:00:00,
2014-11-28 03:22:00,58.0,-99.9,29.90,South,180,9.0,-999.0,-999,-99.99,,,-99.99,,2014-11-28 11:22:00,
2014-11-28 03:33:00,58.0,-99.9,29.90,South,180,9.0,-999.0,-999,-99.99,,,-99.99,,2014-11-28 11:33:00,
2014-11-28 03:42:00,58.0,-99.9,29.90,South,180,9.0,-999.0,-999,-99.99,,,-99.99,,2014-11-28 11:42:00,
2014-11-28 03:53:00,58.0,-99.9,29.90,South,180,9.0,-999.0,-999,-99.99,,,-99.99,,2014-11-28 11:53:00,
2014-11-28 06:00:00,60.0,-99.9,29.83,South,180,14.0,-999.0,-999,-99.99,,,-99.99,,2014-11-28 14:00:00,
2014-11-28 06:22:00,60.0,-99.9,29.83,South,180,14.0,-999.0,-999,-99.99,,,-99.99,,2014-11-28 14:22:00,
2014-11-28 06:32:00,60.0,-99.9,29.83,South,180,14.0,-999.0,-999,-99.99,,,-99.99,,2014-11-28 14:32:00,
2014-11-28 06:42:00,60.0,-99.9,29.83,South,180,14.0,-999.0,-999,-99.99,,,-99.99,,2014-11-28 14:42:00,
2014-11-28 06:53:00,60.0,-99.9,29.83,South,180,14.0,-999.0,-999,-99.99,,,-99.99,,2014-11-28 14:53:00,
2014-11-28 07:00:00,57.0,-99.9,29.85,South,180,8.0,-999.0,-999,-99.99,,,-99.99,,2014-11-28 15:00:00,
2014-11-28 07:23:00,57.0,-99.9,29.85,South,180,8.0,-999.0,-999,-99.99,,,-99.99,,2014-11-28 15:23:00,
2014-11-28 07:34:00,57.0,-99.9,29.85,South,180,8.0,-999.0,-999,-99.99,,,-99.99,,2014-11-28 15:34:00,
2014-11-28 07:44:00,57.0,-99.9,29.85,South,180,8.0,-999.0,-999,-99.99,,,-99.99,,2014-11-28 15:44:00,
2014-11-28 07:55:00,57.0,-99.9,29.85,South,180,8.0,-999.0,-999,-99.99,,,-99.99,,2014-11-28 15:55:00,
2014-11-28 08:00:00,54.0,-99.9,29.86,South,180,9.0,-999.0,-999,-99.99,,,-99.99,,2014-11-28 16:00:00,
2014-11-28 08:24:00,54.0,-99.9,29.86,South,180,9.0,-999.0,-999,-99.99,,,-99.99,,2014-11-28 16:24:00,
2014-11-28 08:34:00,54.0,-99.9,29.86,South,180,9.0,-999.0,-999,-99.99,,,-99.99,,2014-11-28 16:34:00,
2014-11-28 08:44:00,54.0,-99.9,29.86,South,180,9.0,-999.0,-999,-99.99,,,-99.99,,2014-11-28 16:44:00,
2014-11-28 08:54:00,54.0,-99.9,29.86,South,180,9.0,-999.0,-999,-99.99,,,-99.99,,2014-11-28 16:54:00,
2014-11-28 09:00:00,55.0,-99.9,29.84,South,180,14.0,-999.0,-999,-99.99,,,-99.99,,2014-11-28 17:00:00,
2014-11-28 09:22:00,55.0,-99.9,29.84,South,180,14.0,-999.0,-999,-99.99,,,-99.99,,2014-11-28 17:22:00,
2014-11-28 09:33:00,55.0,-99.9,29.84,South,180,14.0,-999.0,-999,-99.99,,,-99.99,,2014-11-28 17:33:00,
2014-11-28 09:43:00,55.0,-99.9,29.84,South,180,14.0,-999.0,-999,-99.99,,,-99.99,,2014-11-28 17:43:00,
2014-11-28 09:53:00,55.0,-99.9,29.84,South,180,14.0,-999.0,-999,-99.99,,,-99.99,,2014-11-28 17:53:00,
2014-11-28 10:00:00,57.0,-99.9,29.84,South,180,12.0,-999.0,-999,-99.99,,,-99.99,,2014-11-28 18:00:00,
2014-11-28 10:23:00,57.0,-99.9,29.84,South,180,12.0,-999.0,-999,-99.99,,,-99.99,,2014-11-28 18:23:00,
2014-11-28 10:33:00,57.0,-99.9,29.84,South,180,12.0,-999.0,-999,-99.99,,,-99.99,,2014-11-28 18:33:00,
2014-11-28 10:44:00,57.0,-99.9,29.84,South,180,12.0,-999.0,-999,-99.99,,,-99.99,,2014-11-28 18:44:00,
2014-11-28 10:54:00,57.0,-99.9,29.84,South,180,12.0,-999.0,-999,-99.99,,,-99.99,,2014-11-28 18:54:00,
2014-11-28 11:22:00,62.0,-99.9,29.82,SSE,157,14.0,-999.0,-999,-99.99,,,-99.99,,2014-11-28 19:22:00,
2014-11-28 11:32:00,62.0,-99.9,29.82,SSE,157,14.0,-999.0,-999,-99.99,,,-99.99,,2014-11-28 19:32:00,
2014-11-28 11:42:00,62.0,-99.9,29.82,SSE,157,14.0,-999.0,-999,-99.99,,,-99.99,,2014-11-28 19:42:00,